Minneapolis, Minnesota
Traffic Map
Current Weather Conditions
Minneapolis, Minnesota
Few Clouds
Few Clouds
11°
Feels Like: 11°
Wind Chill: 11° Ceiling: Unl
Heat Index: 11° Visibility: 10mi
Dew Point: -2° Wind: 25mph
Humidity: 40% Direction: 300° (WNW)
Pressure: 29.82in Gusts: 33mph
Raw Report DataKMSP 292253Z 30022G29KT 10SM FEW065 11/M02 A2982 RMK AO2 PK WND 30038/2205 SLP103 T01111022
Traffic Incident Summary
Active as of:
Severity:
Category:
InformationThere was an issue retrieving the traffic information for this location. Please try a different location or try again shortly.
Advertisements
Track Severe Weather on mobile